sensor_id;sensor_type;location;lat;lon;timestamp;pressure;altitude;pressure_sealevel;temperature;humidity
57248;BME280;55809;46.618;10.764;2022-10-22T00:01:27;93036.19;;;12.38;100.00
57248;BME280;55809;46.618;10.764;2022-10-22T00:03:55;93019.72;;;12.26;100.00
57248;BME280;55809;46.618;10.764;2022-10-22T00:06:23;93037.72;;;12.39;100.00
57248;BME280;55809;46.618;10.764;2022-10-22T00:08:52;92993.94;;;12.14;100.00
57248;BME280;55809;46.618;10.764;2022-10-22T00:11:20;93021.16;;;12.34;100.00
57248;BME280;55809;46.618;10.764;2022-10-22T00:13:50;93022.22;;;12.40;100.00
57248;BME280;55809;46.618;10.764;2022-10-22T00:16:18;93023.03;;;12.37;100.00
57248;BME280;55809;46.618;10.764;2022-10-22T00:18:47;93026.06;;;12.42;100.00
57248;BME280;55809;46.618;10.764;2022-10-22T00:21:15;93009.94;;;12.35;100.00
57248;BME280;55809;46.618;10.764;2022-10-22T00:23:43;93018.25;;;12.48;100.00
57248;BME280;55809;46.618;10.764;2022-10-22T00:26:12;92993.59;;;12.42;100.00
57248;BME280;55809;46.618;10.764;2022-10-22T00:28:40;93010.19;;;12.44;100.00
57248;BME280;55809;46.618;10.764;2022-10-22T00:31:14;92997.81;;;12.43;100.00
57248;BME280;55809;46.618;10.764;2022-10-22T00:33:45;92978.22;;;12.36;100.00
57248;BME280;55809;46.618;10.764;2022-10-22T00:36:14;92998.13;;;12.49;100.00
57248;BME280;55809;46.618;10.764;2022-10-22T00:38:42;92993.94;;;12.44;100.00
57248;BME280;55809;46.618;10.764;2022-10-22T00:41:10;92998.94;;;12.46;100.00
57248;BME280;55809;46.618;10.764;2022-10-22T00:43:58;92997.69;;;12.54;100.00
57248;BME280;55809;46.618;10.764;2022-10-22T00:46:29;92996.66;;;12.44;100.00
57248;BME280;55809;46.618;10.764;2022-10-22T00:48:59;92988.13;;;12.46;100.00
57248;BME280;55809;46.618;10.764;2022-10-22T00:51:32;92963.91;;;12.35;100.00
57248;BME280;55809;46.618;10.764;2022-10-22T00:54:04;92952.06;;;12.26;100.00
57248;BME280;55809;46.618;10.764;2022-10-22T00:56:33;92973.09;;;12.41;100.00
57248;BME280;55809;46.618;10.764;2022-10-22T00:59:02;92954.28;;;12.34;100.00
57248;BME280;55809;46.618;10.764;2022-10-22T01:01:33;92965.38;;;12.40;100.00
57248;BME280;55809;46.618;10.764;2022-10-22T01:04:02;92960.03;;;12.36;100.00
57248;BME280;55809;46.618;10.764;2022-10-22T01:06:32;92953.94;;;12.29;100.00
57248;BME280;55809;46.618;10.764;2022-10-22T01:09:11;92958.13;;;12.33;100.00
57248;BME280;55809;46.618;10.764;2022-10-22T01:11:50;92949.19;;;12.36;100.00
57248;BME280;55809;46.618;10.764;2022-10-22T01:14:24;92951.50;;;12.38;100.00
57248;BME280;55809;46.618;10.764;2022-10-22T01:17:04;92926.06;;;12.32;100.00
57248;BME280;55809;46.618;10.764;2022-10-22T01:19:52;92911.72;;;12.35;100.00
57248;BME280;55809;46.618;10.764;2022-10-22T01:22:30;92935.09;;;12.49;100.00
57248;BME280;55809;46.618;10.764;2022-10-22T01:25:04;92937.81;;;12.49;100.00
57248;BME280;55809;46.618;10.764;2022-10-22T01:27:44;92947.50;;;12.46;100.00
57248;BME280;55809;46.618;10.764;2022-10-22T01:30:17;92924.06;;;12.36;100.00
57248;BME280;55809;46.618;10.764;2022-10-22T01:32:47;92902.09;;;12.30;100.00
57248;BME280;55809;46.618;10.764;2022-10-22T01:35:26;92903.28;;;12.29;100.00
57248;BME280;55809;46.618;10.764;2022-10-22T01:38:02;92895.66;;;12.24;100.00
57248;BME280;55809;46.618;10.764;2022-10-22T01:40:33;92904.44;;;12.32;100.00
57248;BME280;55809;46.618;10.764;2022-10-22T01:43:03;92907.25;;;12.25;100.00
57248;BME280;55809;46.618;10.764;2022-10-22T01:45:36;92893.34;;;12.23;100.00
57248;BME280;55809;46.618;10.764;2022-10-22T01:48:15;92872.41;;;12.27;100.00
57248;BME280;55809;46.618;10.764;2022-10-22T01:51:13;92880.88;;;12.29;100.00
57248;BME280;55809;46.618;10.764;2022-10-22T01:53:52;92871.25;;;12.28;100.00
57248;BME280;55809;46.618;10.764;2022-10-22T01:56:32;92858.88;;;12.27;100.00
57248;BME280;55809;46.618;10.764;2022-10-22T01:59:12;92837.03;;;12.14;100.00
57248;BME280;55809;46.618;10.764;2022-10-22T02:01:52;92831.34;;;12.32;100.00
57248;BME280;55809;46.618;10.764;2022-10-22T02:04:26;92828.97;;;12.34;100.00
57248;BME280;55809;46.618;10.764;2022-10-22T02:06:59;92837.09;;;12.34;100.00
57248;BME280;55809;46.618;10.764;2022-10-22T02:09:30;92847.94;;;12.34;100.00
57248;BME280;55809;46.618;10.764;2022-10-22T02:12:02;92852.19;;;12.35;100.00
57248;BME280;55809;46.618;10.764;2022-10-22T02:14:31;92853.34;;;12.34;100.00
57248;BME280;55809;46.618;10.764;2022-10-22T02:17:03;92840.69;;;12.27;100.00
57248;BME280;55809;46.618;10.764;2022-10-22T02:19:37;92855.97;;;12.41;100.00
57248;BME280;55809;46.618;10.764;2022-10-22T02:22:07;92852.50;;;12.40;100.00
57248;BME280;55809;46.618;10.764;2022-10-22T02:24:36;92836.81;;;12.28;100.00
57248;BME280;55809;46.618;10.764;2022-10-22T02:27:08;92827.69;;;12.18;100.00
57248;BME280;55809;46.618;10.764;2022-10-22T02:29:46;92854.41;;;12.40;100.00
57248;BME280;55809;46.618;10.764;2022-10-22T02:32:23;92839.16;;;12.26;100.00
57248;BME280;55809;46.618;10.764;2022-10-22T02:34:54;92843.06;;;12.25;100.00
57248;BME280;55809;46.618;10.764;2022-10-22T02:37:24;92874.16;;;12.37;100.00
57248;BME280;55809;46.618;10.764;2022-10-22T02:39:55;92873.78;;;12.38;100.00
57248;BME280;55809;46.618;10.764;2022-10-22T02:42:24;92847.03;;;12.17;100.00
57248;BME280;55809;46.618;10.764;2022-10-22T02:44:53;92888.88;;;12.36;100.00
57248;BME280;55809;46.618;10.764;2022-10-22T02:47:25;92899.72;;;12.36;100.00
57248;BME280;55809;46.618;10.764;2022-10-22T02:49:54;92894.66;;;12.38;100.00
57248;BME280;55809;46.618;10.764;2022-10-22T02:52:23;92897.72;;;12.40;100.00
57248;BME280;55809;46.618;10.764;2022-10-22T02:54:51;92881.06;;;12.41;100.00
57248;BME280;55809;46.618;10.764;2022-10-22T02:57:20;92873.72;;;12.42;100.00
57248;BME280;55809;46.618;10.764;2022-10-22T02:59:49;92864.84;;;12.41;100.00
57248;BME280;55809;46.618;10.764;2022-10-22T03:02:17;92867.53;;;12.41;100.00
57248;BME280;55809;46.618;10.764;2022-10-22T03:04:48;92862.31;;;12.31;100.00
57248;BME280;55809;46.618;10.764;2022-10-22T03:07:15;92883.84;;;12.38;100.00
57248;BME280;55809;46.618;10.764;2022-10-22T03:09:43;92884.84;;;12.48;100.00
57248;BME280;55809;46.618;10.764;2022-10-22T03:12:12;92896.44;;;12.48;100.00
57248;BME280;55809;46.618;10.764;2022-10-22T03:14:40;92898.78;;;12.46;100.00
57248;BME280;55809;46.618;10.764;2022-10-22T03:17:08;92899.97;;;12.45;100.00
57248;BME280;55809;46.618;10.764;2022-10-22T03:19:37;92904.88;;;12.54;100.00
57248;BME280;55809;46.618;10.764;2022-10-22T03:22:10;92908.03;;;12.72;100.00
57248;BME280;55809;46.618;10.764;2022-10-22T03:24:43;92903.00;;;12.74;100.00
57248;BME280;55809;46.618;10.764;2022-10-22T03:27:14;92903.06;;;12.71;100.00
57248;BME280;55809;46.618;10.764;2022-10-22T03:29:43;92915.09;;;12.66;100.00
57248;BME280;55809;46.618;10.764;2022-10-22T03:32:12;92915.97;;;12.59;100.00
57248;BME280;55809;46.618;10.764;2022-10-22T03:34:40;92928.81;;;12.55;100.00
57248;BME280;55809;46.618;10.764;2022-10-22T03:37:13;92927.69;;;12.53;100.00
57248;BME280;55809;46.618;10.764;2022-10-22T03:39:42;92927.69;;;12.53;100.00
57248;BME280;55809;46.618;10.764;2022-10-22T03:42:10;92933.09;;;12.53;100.00
57248;BME280;55809;46.618;10.764;2022-10-22T03:44:39;92941.66;;;12.51;100.00
57248;BME280;55809;46.618;10.764;2022-10-22T03:47:08;92947.81;;;12.52;100.00
57248;BME280;55809;46.618;10.764;2022-10-22T03:49:37;92937.34;;;12.54;100.00
57248;BME280;55809;46.618;10.764;2022-10-22T03:52:05;92956.34;;;12.50;100.00
57248;BME280;55809;46.618;10.764;2022-10-22T03:54:34;92966.06;;;12.48;100.00
57248;BME280;55809;46.618;10.764;2022-10-22T03:57:02;92965.75;;;12.42;100.00
57248;BME280;55809;46.618;10.764;2022-10-22T03:59:33;92971.06;;;12.49;100.00
57248;BME280;55809;46.618;10.764;2022-10-22T04:02:00;92966.06;;;12.48;100.00
57248;BME280;55809;46.618;10.764;2022-10-22T04:04:27;92975.41;;;12.43;100.00
57248;BME280;55809;46.618;10.764;2022-10-22T04:06:55;92968.09;;;12.40;100.00
57248;BME280;55809;46.618;10.764;2022-10-22T04:09:24;92967.28;;;12.43;100.00
57248;BME280;55809;46.618;10.764;2022-10-22T04:11:52;92970.72;;;12.47;100.00
57248;BME280;55809;46.618;10.764;2022-10-22T04:14:19;92973.44;;;12.47;100.00
57248;BME280;55809;46.618;10.764;2022-10-22T04:16:47;92970.34;;;12.45;100.00
57248;BME280;55809;46.618;10.764;2022-10-22T04:19:14;92920.25;;;12.06;100.00
57248;BME280;55809;46.618;10.764;2022-10-22T04:21:41;92977.53;;;12.28;100.00
57248;BME280;55809;46.618;10.764;2022-10-22T04:24:08;92996.06;;;12.30;100.00
57248;BME280;55809;46.618;10.764;2022-10-22T04:26:35;92998.00;;;12.29;100.00
57248;BME280;55809;46.618;10.764;2022-10-22T04:29:06;93013.03;;;12.34;100.00
57248;BME280;55809;46.618;10.764;2022-10-22T04:31:35;93012.63;;;12.35;100.00
57248;BME280;55809;46.618;10.764;2022-10-22T04:34:02;93014.63;;;12.31;100.00
57248;BME280;55809;46.618;10.764;2022-10-22T04:36:29;93021.16;;;12.34;100.00
57248;BME280;55809;46.618;10.764;2022-10-22T04:38:58;93021.88;;;12.38;100.00
57248;BME280;55809;46.618;10.764;2022-10-22T04:41:27;93021.56;;;12.32;100.00
57248;BME280;55809;46.618;10.764;2022-10-22T04:43:55;93020.47;;;12.26;100.00
57248;BME280;55809;46.618;10.764;2022-10-22T04:46:25;93024.38;;;12.25;100.00
57248;BME280;55809;46.618;10.764;2022-10-22T04:48:52;93032.44;;;12.29;100.00
57248;BME280;55809;46.618;10.764;2022-10-22T04:51:21;93042.50;;;12.28;100.00
57248;BME280;55809;46.618;10.764;2022-10-22T04:53:50;93044.50;;;12.20;100.00
57248;BME280;55809;46.618;10.764;2022-10-22T04:56:20;93047.97;;;12.25;100.00
57248;BME280;55809;46.618;10.764;2022-10-22T04:58:50;93046.44;;;12.20;100.00
57248;BME280;55809;46.618;10.764;2022-10-22T05:01:20;93049.19;;;12.16;100.00
57248;BME280;55809;46.618;10.764;2022-10-22T05:03:50;93058.88;;;12.17;100.00
57248;BME280;55809;46.618;10.764;2022-10-22T05:06:17;93071.34;;;12.08;100.00
57248;BME280;55809;46.618;10.764;2022-10-22T05:08:45;93065.28;;;11.96;100.00
57248;BME280;55809;46.618;10.764;2022-10-22T05:11:13;93075.28;;;12.00;100.00
57248;BME280;55809;46.618;10.764;2022-10-22T05:13:41;93086.56;;;11.94;100.00
57248;BME280;55809;46.618;10.764;2022-10-22T05:16:08;93067.09;;;11.69;100.00
57248;BME280;55809;46.618;10.764;2022-10-22T05:18:37;93098.25;;;11.84;100.00
57248;BME280;55809;46.618;10.764;2022-10-22T05:21:07;93103.63;;;11.88;100.00
57248;BME280;55809;46.618;10.764;2022-10-22T05:23:35;93101.34;;;11.83;100.00
57248;BME280;55809;46.618;10.764;2022-10-22T05:26:02;93097.97;;;11.71;100.00
57248;BME280;55809;46.618;10.764;2022-10-22T05:28:29;93121.03;;;11.87;100.00
57248;BME280;55809;46.618;10.764;2022-10-22T05:30:57;93118.66;;;11.92;100.00
57248;BME280;55809;46.618;10.764;2022-10-22T05:33:25;93117.19;;;11.81;100.00
57248;BME280;55809;46.618;10.764;2022-10-22T05:35:52;93117.63;;;11.76;99.83
57248;BME280;55809;46.618;10.764;2022-10-22T05:38:21;93123.09;;;11.68;100.00
57248;BME280;55809;46.618;10.764;2022-10-22T05:40:58;93129.69;;;11.64;100.00
57248;BME280;55809;46.618;10.764;2022-10-22T05:43:25;93105.13;;;11.47;100.00
57248;BME280;55809;46.618;10.764;2022-10-22T05:45:52;93110.56;;;11.44;100.00
57248;BME280;55809;46.618;10.764;2022-10-22T05:48:19;93128.19;;;11.59;100.00
57248;BME280;55809;46.618;10.764;2022-10-22T05:50:47;93130.53;;;11.57;100.00
57248;BME280;55809;46.618;10.764;2022-10-22T05:53:16;93132.09;;;11.55;100.00
57248;BME280;55809;46.618;10.764;2022-10-22T05:55:45;93129.06;;;11.49;100.00
57248;BME280;55809;46.618;10.764;2022-10-22T05:58:13;93136.75;;;11.50;100.00
57248;BME280;55809;46.618;10.764;2022-10-22T06:00:40;93136.72;;;11.54;100.00
57248;BME280;55809;46.618;10.764;2022-10-22T06:03:07;93139.53;;;11.43;100.00
57248;BME280;55809;46.618;10.764;2022-10-22T06:05:34;93137.53;;;11.51;100.00
57248;BME280;55809;46.618;10.764;2022-10-22T06:08:02;93134.81;;;11.51;100.00
57248;BME280;55809;46.618;10.764;2022-10-22T06:10:29;93159.13;;;11.58;100.00
57248;BME280;55809;46.618;10.764;2022-10-22T06:12:59;93164.03;;;11.70;100.00
57248;BME280;55809;46.618;10.764;2022-10-22T06:15:29;93137.50;;;11.58;99.66
57248;BME280;55809;46.618;10.764;2022-10-22T06:17:57;93174.44;;;11.72;99.64
57248;BME280;55809;46.618;10.764;2022-10-22T06:20:26;93152.22;;;11.50;98.95
57248;BME280;55809;46.618;10.764;2022-10-22T06:22:56;93183.00;;;11.63;98.76
57248;BME280;55809;46.618;10.764;2022-10-22T06:25:23;93180.75;;;11.55;98.70
57248;BME280;55809;46.618;10.764;2022-10-22T06:27:52;93182.25;;;11.63;99.01
57248;BME280;55809;46.618;10.764;2022-10-22T06:30:20;93181.47;;;11.62;97.90
57248;BME280;55809;46.618;10.764;2022-10-22T06:32:47;93183.03;;;11.60;98.42
57248;BME280;55809;46.618;10.764;2022-10-22T06:35:14;93175.34;;;11.55;98.19
57248;BME280;55809;46.618;10.764;2022-10-22T06:37:46;93191.16;;;11.60;96.46
57248;BME280;55809;46.618;10.764;2022-10-22T06:40:14;93157.75;;;11.36;96.50
57248;BME280;55809;46.618;10.764;2022-10-22T06:42:43;93180.03;;;11.47;97.40
57248;BME280;55809;46.618;10.764;2022-10-22T06:45:10;93189.69;;;11.44;97.23
57248;BME280;55809;46.618;10.764;2022-10-22T06:47:38;93214.69;;;11.63;96.37
57248;BME280;55809;46.618;10.764;2022-10-22T06:50:07;93213.19;;;11.55;95.39
57248;BME280;55809;46.618;10.764;2022-10-22T06:52:34;93217.44;;;11.56;95.19
57248;BME280;55809;46.618;10.764;2022-10-22T06:55:02;93219.00;;;11.53;95.54
57248;BME280;55809;46.618;10.764;2022-10-22T06:57:29;93210.59;;;11.40;94.86
57248;BME280;55809;46.618;10.764;2022-10-22T06:59:56;93224.81;;;11.48;94.48
57248;BME280;55809;46.618;10.764;2022-10-22T07:02:23;93239.09;;;11.52;94.88
57248;BME280;55809;46.618;10.764;2022-10-22T07:04:52;93245.59;;;11.62;94.85
57248;BME280;55809;46.618;10.764;2022-10-22T07:07:19;93263.34;;;11.63;94.93
57248;BME280;55809;46.618;10.764;2022-10-22T07:09:46;93262.19;;;11.64;95.08
57248;BME280;55809;46.618;10.764;2022-10-22T07:12:14;93267.63;;;11.57;94.29
57248;BME280;55809;46.618;10.764;2022-10-22T07:14:41;93268.00;;;11.62;94.70
57248;BME280;55809;46.618;10.764;2022-10-22T07:17:08;93266.88;;;11.56;94.46
57248;BME280;55809;46.618;10.764;2022-10-22T07:19:35;93271.13;;;11.54;94.81
57248;BME280;55809;46.618;10.764;2022-10-22T07:22:04;93273.13;;;11.46;94.36
57248;BME280;55809;46.618;10.764;2022-10-22T07:24:31;93280.88;;;11.37;94.76
57248;BME280;55809;46.618;10.764;2022-10-22T07:26:58;93282.78;;;11.40;94.44
57248;BME280;55809;46.618;10.764;2022-10-22T07:29:25;93236.66;;;11.06;95.05
57248;BME280;55809;46.618;10.764;2022-10-22T07:31:52;93259.69;;;11.28;95.52
57248;BME280;55809;46.618;10.764;2022-10-22T07:34:20;93291.59;;;11.51;95.70
57248;BME280;55809;46.618;10.764;2022-10-22T07:36:46;93308.97;;;11.54;95.01
57248;BME280;55809;46.618;10.764;2022-10-22T07:39:15;93308.97;;;11.54;94.74
57248;BME280;55809;46.618;10.764;2022-10-22T07:41:42;93314.34;;;11.57;95.11
57248;BME280;55809;46.618;10.764;2022-10-22T07:44:09;93290.94;;;11.33;94.77
57248;BME280;55809;46.618;10.764;2022-10-22T07:46:36;93297.91;;;11.30;95.41
57248;BME280;55809;46.618;10.764;2022-10-22T07:49:03;93281.72;;;11.26;95.84
57248;BME280;55809;46.618;10.764;2022-10-22T07:51:30;93312.53;;;11.36;95.95
57248;BME280;55809;46.618;10.764;2022-10-22T07:53:57;93322.16;;;11.44;95.90
57248;BME280;55809;46.618;10.764;2022-10-22T07:56:25;93302.91;;;11.35;95.21
57248;BME280;55809;46.618;10.764;2022-10-22T07:58:53;93314.44;;;11.43;94.76
57248;BME280;55809;46.618;10.764;2022-10-22T08:01:20;93318.31;;;11.38;94.58
57248;BME280;55809;46.618;10.764;2022-10-22T08:03:47;93316.41;;;11.32;93.76
57248;BME280;55809;46.618;10.764;2022-10-22T08:06:14;93321.16;;;11.06;95.47
57248;BME280;55809;46.618;10.764;2022-10-22T08:08:42;93309.94;;;11.08;96.92
57248;BME280;55809;46.618;10.764;2022-10-22T08:11:11;93309.59;;;11.02;95.47
57248;BME280;55809;46.618;10.764;2022-10-22T08:13:39;93305.03;;;10.77;95.81
57248;BME280;55809;46.618;10.764;2022-10-22T08:16:06;93325.03;;;10.94;95.66
57248;BME280;55809;46.618;10.764;2022-10-22T08:18:33;93302.34;;;10.74;96.31
57248;BME280;55809;46.618;10.764;2022-10-22T08:21:00;93321.56;;;10.97;96.03
57248;BME280;55809;46.618;10.764;2022-10-22T08:23:27;93313.41;;;11.12;95.48
57248;BME280;55809;46.618;10.764;2022-10-22T08:25:55;93323.13;;;10.95;95.26
57248;BME280;55809;46.618;10.764;2022-10-22T08:28:23;93327.78;;;10.84;95.03
57248;BME280;55809;46.618;10.764;2022-10-22T08:30:51;93330.09;;;10.85;96.08
57248;BME280;55809;46.618;10.764;2022-10-22T08:33:19;93310.84;;;10.79;95.83
57248;BME280;55809;46.618;10.764;2022-10-22T08:35:49;93342.75;;;11.13;96.36
57248;BME280;55809;46.618;10.764;2022-10-22T08:38:16;93343.13;;;11.12;95.29
57248;BME280;55809;46.618;10.764;2022-10-22T08:40:46;93345.84;;;11.08;95.45
57248;BME280;55809;46.618;10.764;2022-10-22T08:43:40;93350.50;;;10.97;95.30
57248;BME280;55809;46.618;10.764;2022-10-22T08:46:26;93352.44;;;10.96;96.47
57248;BME280;55809;46.618;10.764;2022-10-22T08:48:57;93347.78;;;11.00;94.96
57248;BME280;55809;46.618;10.764;2022-10-22T08:51:29;93342.38;;;11.04;95.36
57248;BME280;55809;46.618;10.764;2022-10-22T08:54:07;93345.47;;;11.06;95.08
57248;BME280;55809;46.618;10.764;2022-10-22T08:56:41;93313.47;;;10.94;95.07
57248;BME280;55809;46.618;10.764;2022-10-22T08:59:14;93312.28;;;10.98;94.56
57248;BME280;55809;46.618;10.764;2022-10-22T09:01:48;93351.94;;;11.30;92.62
57248;BME280;55809;46.618;10.764;2022-10-22T09:04:20;93344.56;;;11.41;93.04
57248;BME280;55809;46.618;10.764;2022-10-22T09:06:51;93327.63;;;11.30;92.67
57248;BME280;55809;46.618;10.764;2022-10-22T09:09:19;93335.34;;;11.35;92.89
57248;BME280;55809;46.618;10.764;2022-10-22T09:11:49;93349.16;;;11.44;92.28
57248;BME280;55809;46.618;10.764;2022-10-22T09:14:18;93326.09;;;11.29;93.43
57248;BME280;55809;46.618;10.764;2022-10-22T09:17:04;93348.69;;;11.64;92.98
57248;BME280;55809;46.618;10.764;2022-10-22T09:19:47;93341.66;;;11.88;91.74
57248;BME280;55809;46.618;10.764;2022-10-22T09:22:21;93313.13;;;11.72;90.37
57248;BME280;55809;46.618;10.764;2022-10-22T09:24:57;93341.25;;;11.89;90.63
57248;BME280;55809;46.618;10.764;2022-10-22T09:27:28;93331.22;;;11.83;90.98
57248;BME280;55809;46.618;10.764;2022-10-22T09:29:55;93301.28;;;11.52;91.25
57248;BME280;55809;46.618;10.764;2022-10-22T09:32:24;93323.16;;;11.76;91.60
57248;BME280;55809;46.618;10.764;2022-10-22T09:34:55;93330.47;;;11.79;90.70
57248;BME280;55809;46.618;10.764;2022-10-22T09:37:25;93342.00;;;11.93;90.59
57248;BME280;55809;46.618;10.764;2022-10-22T09:39:53;93345.47;;;11.90;89.69
57248;BME280;55809;46.618;10.764;2022-10-22T09:42:21;93341.66;;;11.81;89.74
57248;BME280;55809;46.618;10.764;2022-10-22T09:44:51;93338.16;;;11.84;90.77
57248;BME280;55809;46.618;10.764;2022-10-22T09:47:33;93298.94;;;11.54;90.36
57248;BME280;55809;46.618;10.764;2022-10-22T09:50:08;93281.25;;;11.42;90.75
57248;BME280;55809;46.618;10.764;2022-10-22T09:52:39;93325.09;;;11.75;91.08
57248;BME280;55809;46.618;10.764;2022-10-22T09:55:12;93322.34;;;11.82;90.82
57248;BME280;55809;46.618;10.764;2022-10-22T09:57:39;93334.69;;;11.87;90.51
57248;BME280;55809;46.618;10.764;2022-10-22T10:00:08;93314.56;;;11.95;91.43
57248;BME280;55809;46.618;10.764;2022-10-22T10:02:39;93323.75;;;12.08;90.51
57248;BME280;55809;46.618;10.764;2022-10-22T10:05:07;93317.88;;;12.13;90.12
57248;BME280;55809;46.618;10.764;2022-10-22T10:07:35;93276.34;;;11.89;89.58
57248;BME280;55809;46.618;10.764;2022-10-22T10:10:16;93315.53;;;12.19;89.50
57248;BME280;55809;46.618;10.764;2022-10-22T10:12:52;93311.56;;;12.34;88.26
57248;BME280;55809;46.618;10.764;2022-10-22T10:15:27;93313.50;;;12.30;89.65
57248;BME280;55809;46.618;10.764;2022-10-22T10:18:06;93314.28;;;12.31;89.65
57248;BME280;55809;46.618;10.764;2022-10-22T10:20:41;93312.38;;;12.28;88.50
57248;BME280;55809;46.618;10.764;2022-10-22T10:23:18;93306.91;;;12.35;88.46
57248;BME280;55809;46.618;10.764;2022-10-22T10:25:54;93306.41;;;12.47;88.09
57248;BME280;55809;46.618;10.764;2022-10-22T10:28:38;93309.25;;;12.74;86.44
57248;BME280;55809;46.618;10.764;2022-10-22T10:31:16;93307.69;;;12.73;86.14
57248;BME280;55809;46.618;10.764;2022-10-22T10:33:54;93309.25;;;12.74;86.08
57248;BME280;55809;46.618;10.764;2022-10-22T10:36:34;93308.91;;;12.68;87.42
57248;BME280;55809;46.618;10.764;2022-10-22T10:39:09;93316.19;;;12.75;88.07
57248;BME280;55809;46.618;10.764;2022-10-22T10:41:45;93309.09;;;12.88;87.31
57248;BME280;55809;46.618;10.764;2022-10-22T10:44:46;93309.47;;;12.90;85.68
57248;BME280;55809;46.618;10.764;2022-10-22T10:47:39;93300.13;;;12.95;85.46
57248;BME280;55809;46.618;10.764;2022-10-22T10:50:19;93301.94;;;13.05;83.59
57248;BME280;55809;46.618;10.764;2022-10-22T10:52:53;93288.72;;;13.11;82.92
57248;BME280;55809;46.618;10.764;2022-10-22T10:55:31;93295.94;;;13.21;82.36
57248;BME280;55809;46.618;10.764;2022-10-22T10:58:09;93286.00;;;13.11;81.85
57248;BME280;55809;46.618;10.764;2022-10-22T11:00:45;93292.84;;;13.26;82.48
57248;BME280;55809;46.618;10.764;2022-10-22T11:06:24;93268.81;;;13.25;81.93
57248;BME280;55809;46.618;10.764;2022-10-22T11:08:56;93302.13;;;13.56;81.63
57248;BME280;55809;46.618;10.764;2022-10-22T11:11:30;93272.59;;;13.34;81.63
57248;BME280;55809;46.618;10.764;2022-10-22T11:14:08;93259.50;;;13.26;81.09
57248;BME280;55809;46.618;10.764;2022-10-22T11:16:41;93294.78;;;13.56;82.23
57248;BME280;55809;46.618;10.764;2022-10-22T11:19:18;93293.84;;;13.67;82.55
57248;BME280;55809;46.618;10.764;2022-10-22T11:21:51;93280.44;;;13.83;83.20
57248;BME280;55809;46.618;10.764;2022-10-22T11:24:25;93283.69;;;13.98;81.94
57248;BME280;55809;46.618;10.764;2022-10-22T11:26:55;93273.97;;;14.00;82.22
57248;BME280;55809;46.618;10.764;2022-10-22T11:29:28;93282.75;;;14.12;82.09
57248;BME280;55809;46.618;10.764;2022-10-22T11:31:59;93286.63;;;14.11;82.91
57248;BME280;55809;46.618;10.764;2022-10-22T11:34:33;93257.03;;;13.93;83.45
57248;BME280;55809;46.618;10.764;2022-10-22T11:37:05;93284.66;;;14.11;83.37
57248;BME280;55809;46.618;10.764;2022-10-22T11:39:38;93277.94;;;13.96;83.68
57248;BME280;55809;46.618;10.764;2022-10-22T11:42:10;93282.78;;;14.08;83.14
57248;BME280;55809;46.618;10.764;2022-10-22T11:44:45;93285.53;;;14.04;82.53
57248;BME280;55809;46.618;10.764;2022-10-22T11:47:18;93272.75;;;13.78;81.61
57248;BME280;55809;46.618;10.764;2022-10-22T11:49:55;93285.75;;;13.90;81.08
57248;BME280;55809;46.618;10.764;2022-10-22T11:52:27;93258.59;;;13.67;82.72
57248;BME280;55809;46.618;10.764;2022-10-22T11:55:31;93268.34;;;13.88;81.21
57248;BME280;55809;46.618;10.764;2022-10-22T11:58:00;93277.88;;;13.99;81.59
57248;BME280;55809;46.618;10.764;2022-10-22T12:00:45;93265.44;;;14.02;83.31
57248;BME280;55809;46.618;10.764;2022-10-22T12:03:18;93273.97;;;14.00;82.52
57248;BME280;55809;46.618;10.764;2022-10-22T12:06:04;93230.94;;;13.75;81.91
57248;BME280;55809;46.618;10.764;2022-10-22T12:08:44;93261.53;;;14.03;83.08
57248;BME280;55809;46.618;10.764;2022-10-22T12:11:15;93268.75;;;14.13;82.72
57248;BME280;55809;46.618;10.764;2022-10-22T12:13:57;93272.66;;;14.12;84.35
57248;BME280;55809;46.618;10.764;2022-10-22T12:16:33;93242.81;;;13.85;83.69
57248;BME280;55809;46.618;10.764;2022-10-22T12:19:04;93266.66;;;13.97;83.64
57248;BME280;55809;46.618;10.764;2022-10-22T12:21:33;93262.66;;;14.05;84.37
57248;BME280;55809;46.618;10.764;2022-10-22T12:24:02;93266.09;;;14.10;84.74
57248;BME280;55809;46.618;10.764;2022-10-22T12:26:31;93238.69;;;14.24;83.60
57248;BME280;55809;46.618;10.764;2022-10-22T12:29:00;93263.75;;;14.59;81.58
57248;BME280;55809;46.618;10.764;2022-10-22T12:31:34;93227.38;;;14.52;80.90
57248;BME280;55809;46.618;10.764;2022-10-22T12:34:02;93244.25;;;14.84;80.24
57248;BME280;55809;46.618;10.764;2022-10-22T12:36:31;93238.41;;;15.05;79.95
57248;BME280;55809;46.618;10.764;2022-10-22T12:39:00;93226.41;;;15.02;79.29
57248;BME280;55809;46.618;10.764;2022-10-22T12:41:34;93226.94;;;14.97;81.38
57248;BME280;55809;46.618;10.764;2022-10-22T12:44:03;93227.03;;;14.90;79.96
57248;BME280;55809;46.618;10.764;2022-10-22T12:46:32;93225.59;;;14.86;79.03
57248;BME280;55809;46.618;10.764;2022-10-22T12:49:02;93223.41;;;14.77;79.20
57248;BME280;55809;46.618;10.764;2022-10-22T12:51:33;93217.78;;;14.68;79.09
57248;BME280;55809;46.618;10.764;2022-10-22T12:54:03;93223.41;;;14.57;80.58
57248;BME280;55809;46.618;10.764;2022-10-22T12:56:36;93190.53;;;14.28;79.91
57248;BME280;55809;46.618;10.764;2022-10-22T12:59:06;93211.78;;;14.33;80.05
57248;BME280;55809;46.618;10.764;2022-10-22T13:01:38;93211.47;;;14.27;82.18
57248;BME280;55809;46.618;10.764;2022-10-22T13:04:18;93190.84;;;14.10;81.05
57248;BME280;55809;46.618;10.764;2022-10-22T13:06:47;93210.41;;;14.21;81.26
57248;BME280;55809;46.618;10.764;2022-10-22T13:09:17;93195.56;;;14.06;82.76